Time;durP1;ratioP1;P1;durP2;ratioP2;P2;SDS_P1;SDS_P2;PMS_P1;PMS_P2;Temp;Humidity;BMP_temperature;BMP_pressure;BME280_temperature;BME280_humidity;BME280_pressure;Samples;Min_cycle;Max_cycle;Signal;HPM_P1;HPM_P2
2022/05/26 00:01:08;;;;;;;;;;;;;;;23.47;74.09;96988.73;609978;232;66695;-74
2022/05/26 00:03:36;;;;;;;;;;;;;;;23.48;73.52;96984.95;609986;232;63006;-74
2022/05/26 00:06:06;;;;;;;;;;;;;;;23.48;74.14;96984.95;612100;231;68629;-74
2022/05/26 00:08:37;;;;;;;;;;;;;;;23.47;74.94;96986.84;613350;229;68569;-71
2022/05/26 00:11:06;;;;;;;;;;;;;;;23.48;74.54;96990.31;616338;230;63278;-71
2022/05/26 00:13:35;;;;;;;;;;;;;;;23.46;74.49;96995.98;616393;230;68630;-71
2022/05/26 00:16:03;;;;;;;;;;;;;;;23.47;73.86;96991.41;616377;230;68312;-71
2022/05/26 00:18:30;;;;;;;;;;;;;;;23.47;75.10;96988.73;616344;230;65368;-71
2022/05/26 00:20:58;;;;;;;;;;;;;;;23.47;74.19;96988.73;616358;230;68593;-71
2022/05/26 00:23:26;;;;;;;;;;;;;;;23.48;74.02;97001.05;616312;230;68844;-71
2022/05/26 00:25:54;;;;;;;;;;;;;;;23.47;75.77;97000.25;616357;230;65626;-71
2022/05/26 00:28:21;;;;;;;;;;;;;;;23.47;74.09;97002.14;616370;230;68628;-71
2022/05/26 00:30:49;;;;;;;;;;;;;;;23.47;74.09;97002.94;616332;230;68532;-71
2022/05/26 00:33:17;;;;;;;;;;;;;;;23.47;74.47;97005.62;616342;230;65345;-71
2022/05/26 00:35:45;;;;;;;;;;;;;;;23.47;75.08;97004.83;616363;230;68617;-71
2022/05/26 00:38:13;;;;;;;;;;;;;;;23.46;74.91;97004.03;616338;230;68496;-71
2022/05/26 00:40:42;;;;;;;;;;;;;;;23.47;75.56;97000.25;616370;230;65462;-74
2022/05/26 00:43:10;;;;;;;;;;;;;;;23.46;76.21;97009.40;616312;229;68469;-74
2022/05/26 00:45:39;;;;;;;;;;;;;;;23.46;75.41;97008.57;616335;230;66660;-74
2022/05/26 00:48:09;;;;;;;;;;;;;;;23.46;74.40;97003.21;616321;230;65984;-74
2022/05/26 00:50:40;;;;;;;;;;;;;;;23.47;75.35;97010.98;616390;230;66707;-74
2022/05/26 00:53:14;;;;;;;;;;;;;;;23.46;74.96;97003.21;616321;230;66439;-74
2022/05/26 00:55:44;;;;;;;;;;;;;;;23.46;74.30;97013.94;616339;230;62836;-74
2022/05/26 00:58:21;;;;;;;;;;;;;;;23.46;74.79;97013.94;616249;230;66442;-73
2022/05/26 01:00:49;;;;;;;;;;;;;;;23.46;74.69;97008.57;616355;230;66469;-73
2022/05/26 01:03:21;;;;;;;;;;;;;;;23.46;75.76;97008.57;616330;230;63056;-73
2022/05/26 01:05:50;;;;;;;;;;;;;;;23.45;75.79;97012.35;613256;230;68512;-73
2022/05/26 01:08:19;;;;;;;;;;;;;;;23.44;74.34;97016.92;610908;232;68300;-73
2022/05/26 01:10:46;;;;;;;;;;;;;;;23.46;75.31;97021.98;609057;232;65368;-73
2022/05/26 01:13:18;;;;;;;;;;;;;;;23.45;74.31;97013.14;609984;230;68248;-73
2022/05/26 01:15:47;;;;;;;;;;;;;;;23.46;76.11;97013.94;609992;232;68301;-73
2022/05/26 01:18:16;;;;;;;;;;;;;;;23.45;75.28;97012.35;609962;230;65471;-73
2022/05/26 01:21:03;;;;;;;;;;;;;;;23.45;75.52;97015.03;610018;230;65929;-73
2022/05/26 01:23:32;;;;;;;;;;;;;;;23.45;76.46;97004.30;609991;230;66212;-73
2022/05/26 01:26:01;;;;;;;;;;;;;;;23.43;74.65;96998.42;610005;232;63156;-73
2022/05/26 01:28:30;;;;;;;;;;;;;;;23.44;74.39;96997.36;609709;230;66314;-73
2022/05/26 01:31:16;;;;;;;;;;;;;;;23.45;75.48;97001.62;610007;232;66212;-73
2022/05/26 01:33:45;;;;;;;;;;;;;;;23.44;75.52;97008.88;609986;232;63125;-74
2022/05/26 01:36:16;;;;;;;;;;;;;;;23.45;76.24;97012.35;609989;230;66400;-72
2022/05/26 01:39:04;;;;;;;;;;;;;;;23.44;75.17;97022.29;609785;231;68902;-71
2022/05/26 01:41:33;;;;;;;;;;;;;;;23.45;76.02;97031.13;609971;232;65312;-71
2022/05/26 01:44:04;;;;;;;;;;;;;;;23.43;74.61;97036.77;609799;231;68671;-71
2022/05/26 01:46:33;;;;;;;;;;;;;;;23.43;75.06;97036.77;609984;232;68349;-71
2022/05/26 01:49:02;;;;;;;;;;;;;;;23.45;75.88;97044.53;609968;232;63032;-73
2022/05/26 01:51:34;;;;;;;;;;;;;;;23.44;75.30;97048.31;609956;231;65468;-73
2022/05/26 01:54:06;;;;;;;;;;;;;;;23.44;74.19;97053.67;610000;231;68564;-74
2022/05/26 01:56:50;;;;;;;;;;;;;;;23.44;75.78;97041.06;609977;230;63876;-73
2022/05/26 01:59:19;;;;;;;;;;;;;;;23.45;76.37;97049.90;609861;230;68309;-73
2022/05/26 02:01:48;;;;;;;;;;;;;;;23.43;76.87;97044.02;609955;232;68492;-73
2022/05/26 02:04:17;;;;;;;;;;;;;;;23.44;76.49;97051.00;609860;230;65328;-74
2022/05/26 02:06:58;;;;;;;;;;;;;;;23.43;75.64;97057.42;609970;230;69113;-73
2022/05/26 02:09:27;;;;;;;;;;;;;;;23.43;74.78;97050.17;610002;232;66361;-73
2022/05/26 02:11:59;;;;;;;;;;;;;;;23.44;76.12;97053.67;609967;232;63091;-73
2022/05/26 02:14:34;;;;;;;;;;;;;;;23.42;75.29;97053.95;609935;230;68656;-74
2022/05/26 02:17:03;;;;;;;;;;;;;;;23.43;74.89;97046.70;609774;232;68507;-74
2022/05/26 02:19:35;;;;;;;;;;;;;;;23.43;75.56;97047.48;609652;230;65034;-74
2022/05/26 02:22:04;;;;;;;;;;;;;;;23.44;76.46;97051.00;610051;232;68628;-74
2022/05/26 02:24:36;;;;;;;;;;;;;;;23.42;76.03;97043.22;609764;230;68665;-74
2022/05/26 02:27:04;;;;;;;;;;;;;;;23.43;75.15;97041.33;609998;232;65481;-73
2022/05/26 02:32:19;;;;;;;;;;;;;;;23.43;76.36;97049.38;609974;232;66394;-74
2022/05/26 02:34:48;;;;;;;;;;;;;;;23.43;74.85;97052.06;609994;230;62985;-74
2022/05/26 02:37:16;;;;;;;;;;;;;;;23.43;76.87;97047.48;610061;232;66597;-72
2022/05/26 02:39:44;;;;;;;;;;;;;;;23.42;75.68;97050.48;609970;232;68705;-72
2022/05/26 02:42:11;;;;;;;;;;;;;;;23.43;74.42;97047.48;609986;232;64107;-72
2022/05/26 02:44:41;;;;;;;;;;;;;;;23.42;75.66;97045.91;609961;232;66455;-74
2022/05/26 02:47:16;;;;;;;;;;;;;;;23.42;75.54;97051.27;609982;232;68549;-74
2022/05/26 02:50:00;;;;;;;;;;;;;;;23.43;74.46;97049.38;609668;231;65140;-72
2022/05/26 02:52:30;;;;;;;;;;;;;;;23.42;76.12;97056.63;609625;231;68623;-74
2022/05/26 02:55:05;;;;;;;;;;;;;;;23.41;76.65;97060.41;609953;232;66744;-74
2022/05/26 02:57:50;;;;;;;;;;;;;;;23.42;76.45;97058.52;609975;232;62997;-75
2022/05/26 03:00:19;;;;;;;;;;;;;;;23.41;76.44;97059.62;600145;236;68706;-74
2022/05/26 03:02:54;;;;;;;;;;;;;;;23.42;75.71;97058.52;606933;232;68513;-71
2022/05/26 03:05:23;;;;;;;;;;;;;;;23.42;76.11;97058.52;610633;231;63918;-71
2022/05/26 03:07:52;;;;;;;;;;;;;;;23.41;74.64;97064.98;611332;232;68666;-71
2022/05/26 03:10:24;;;;;;;;;;;;;;;23.41;76.27;97056.94;611894;230;68492;-71
2022/05/26 03:12:54;;;;;;;;;;;;;;;23.41;75.70;97079.19;616238;230;65439;-71
2022/05/26 03:15:22;;;;;;;;;;;;;;;23.40;76.12;97069.52;616320;230;68371;-71
2022/05/26 03:17:49;;;;;;;;;;;;;;;23.42;76.78;97077.30;616335;230;68425;-71
2022/05/26 03:20:17;;;;;;;;;;;;;;;23.41;74.82;97094.48;616326;230;64968;-71
2022/05/26 03:22:44;;;;;;;;;;;;;;;23.41;75.71;97102.52;616327;230;68952;-71
2022/05/26 03:25:12;;;;;;;;;;;;;;;23.40;75.88;97104.38;616280;230;68573;-71
2022/05/26 03:27:39;;;;;;;;;;;;;;;23.41;75.94;97113.25;616317;230;65519;-71
2022/05/26 03:30:07;;;;;;;;;;;;;;;23.41;76.44;97124.78;616322;230;68607;-71
2022/05/26 03:32:35;;;;;;;;;;;;;;;23.41;76.12;97127.45;616320;230;68552;-74
2022/05/26 03:40:53;;;;;;;;;;;;;;;23.41;76.27;97154.28;616365;230;68711;-73
2022/05/26 03:43:22;;;;;;;;;;;;;;;23.41;75.82;97153.48;616348;230;65325;-73
2022/05/26 03:45:50;;;;;;;;;;;;;;;23.42;75.50;97157.75;616280;230;68671;-73
2022/05/26 03:48:18;;;;;;;;;;;;;;;23.41;75.62;97167.69;616344;230;68540;-73
2022/05/26 03:50:45;;;;;;;;;;;;;;;23.40;76.15;97170.64;616398;230;63209;-73
2022/05/26 03:53:12;;;;;;;;;;;;;;;23.40;76.53;97165.27;616366;230;66356;-73
2022/05/26 03:55:40;;;;;;;;;;;;;;;23.39;76.39;97169.05;616320;230;67405;-73
2022/05/26 03:58:08;;;;;;;;;;;;;;;23.40;77.06;97171.44;616361;230;63004;-73
2022/05/26 04:00:35;;;;;;;;;;;;;;;23.39;76.66;97164.48;616331;230;68634;-73
2022/05/26 04:03:03;;;;;;;;;;;;;;;23.39;75.29;97175.20;616400;230;68248;-73
2022/05/26 04:05:31;;;;;;;;;;;;;;;23.40;76.69;97184.05;616374;230;65089;-73
2022/05/26 04:07:59;;;;;;;;;;;;;;;23.40;75.17;97192.09;616348;230;68666;-75
2022/05/26 04:10:26;;;;;;;;;;;;;;;23.41;76.39;97193.71;616278;230;68849;-73
2022/05/26 04:12:55;;;;;;;;;;;;;;;23.40;75.29;97192.09;616318;230;65339;-73
2022/05/26 04:15:23;;;;;;;;;;;;;;;23.41;76.61;97199.87;616355;230;68411;-74
2022/05/26 04:17:51;;;;;;;;;;;;;;;23.40;75.48;97202.82;616377;230;68645;-73
2022/05/26 04:20:19;;;;;;;;;;;;;;;23.40;75.83;97206.30;616342;230;64861;-74
2022/05/26 04:22:47;;;;;;;;;;;;;;;23.40;76.53;97217.02;616360;230;66886;-74
2022/05/26 04:25:16;;;;;;;;;;;;;;;23.39;76.98;97220.01;616286;230;68541;-74
2022/05/26 04:27:44;;;;;;;;;;;;;;;23.39;75.68;97220.01;616375;230;62988;-71
2022/05/26 04:30:12;;;;;;;;;;;;;;;23.40;75.36;97213.55;616356;230;66144;-71
2022/05/26 04:32:40;;;;;;;;;;;;;;;23.40;76.62;97224.28;616345;230;66435;-70
2022/05/26 04:35:09;;;;;;;;;;;;;;;23.39;77.28;97233.42;616310;230;63050;-71
2022/05/26 04:37:37;;;;;;;;;;;;;;;23.39;76.03;97233.42;616333;230;68888;-71
2022/05/26 04:40:06;;;;;;;;;;;;;;;23.40;75.11;97245.73;616316;230;66649;-71
2022/05/26 04:42:34;;;;;;;;;;;;;;;23.41;76.56;97247.35;616367;230;63357;-71
2022/05/26 04:45:01;;;;;;;;;;;;;;;23.39;76.53;97238.78;616318;230;68877;-70
2022/05/26 04:47:29;;;;;;;;;;;;;;;23.39;75.78;97252.98;616238;230;66411;-70
2022/05/26 04:49:56;;;;;;;;;;;;;;;23.39;75.94;97252.98;616288;230;62988;-70
2022/05/26 04:52:24;;;;;;;;;;;;;;;23.39;76.81;97257.55;615638;229;68661;-71
2022/05/26 04:54:52;;;;;;;;;;;;;;;23.39;76.73;97260.23;616160;230;69659;-70
2022/05/26 04:57:21;;;;;;;;;;;;;;;23.39;77.14;97257.55;616356;230;65373;-71
2022/05/26 04:59:50;;;;;;;;;;;;;;;23.39;76.12;97262.91;616235;230;68602;-71
2022/05/26 05:02:18;;;;;;;;;;;;;;;23.39;77.23;97268.28;616312;230;66381;-71
2022/05/26 05:04:48;;;;;;;;;;;;;;;23.38;76.72;97269.34;614683;230;63058;-69
2022/05/26 05:07:17;;;;;;;;;;;;;;;23.38;76.06;97274.70;610044;232;66038;-71
2022/05/26 05:09:45;;;;;;;;;;;;;;;23.38;76.81;97274.70;609995;232;68736;-70
2022/05/26 05:12:14;;;;;;;;;;;;;;;23.38;76.94;97277.39;609341;232;65380;-71
2022/05/26 05:14:44;;;;;;;;;;;;;;;23.36;75.63;97280.36;609311;232;68869;-71
2022/05/26 05:17:12;;;;;;;;;;;;;;;23.37;76.08;97278.48;609090;230;67877;-71
2022/05/26 05:19:39;;;;;;;;;;;;;;;23.38;76.57;97286.26;609906;232;65286;-71
2022/05/26 05:22:08;;;;;;;;;;;;;;;23.35;75.98;97277.95;610009;232;68313;-70
2022/05/26 05:24:37;;;;;;;;;;;;;;;23.35;75.54;97276.06;609862;230;68744;-70
2022/05/26 05:27:06;;;;;;;;;;;;;;;23.35;75.23;97272.59;609969;232;65392;-71
2022/05/26 05:29:35;;;;;;;;;;;;;;;23.35;75.67;97276.06;609993;232;66105;-71
2022/05/26 05:32:04;;;;;;;;;;;;;;;23.36;75.45;97276.89;609971;232;66412;-71
2022/05/26 05:34:36;;;;;;;;;;;;;;;23.35;76.20;97268.02;609972;230;63936;-72
2022/05/26 05:37:05;;;;;;;;;;;;;;;23.34;76.18;97274.47;609686;232;66012;-71
2022/05/26 05:39:33;;;;;;;;;;;;;;;23.36;75.33;97276.89;609980;232;68550;-71
2022/05/26 05:42:00;;;;;;;;;;;;;;;23.36;75.86;97274.20;610002;232;65348;-72
2022/05/26 05:44:28;;;;;;;;;;;;;;;23.34;75.36;97276.36;609949;232;68486;-72
2022/05/26 05:47:01;;;;;;;;;;;;;;;23.35;75.59;97276.06;609934;230;69623;-72
2022/05/26 05:49:27;;;;;;;;;;;;;;;23.35;75.59;97280.63;609879;230;63013;-71
2022/05/26 05:51:55;;;;;;;;;;;;;;;23.35;74.88;97286.00;609859;231;68883;-71
2022/05/26 05:54:24;;;;;;;;;;;;;;;23.35;75.38;97276.06;609947;232;68483;-72
2022/05/26 05:56:51;;;;;;;;;;;;;;;23.34;75.34;97273.68;609494;230;63266;-72
2022/05/26 05:59:18;;;;;;;;;;;;;;;23.36;74.62;97282.25;609619;232;66660;-71
2022/05/26 06:01:46;;;;;;;;;;;;;;;23.36;74.22;97276.89;609995;232;66525;-71
2022/05/26 06:04:14;;;;;;;;;;;;;;;23.35;74.62;97280.63;609718;232;65088;-72
2022/05/26 06:06:43;;;;;;;;;;;;;;;23.36;75.62;97277.69;610976;231;68712;-69
2022/05/26 06:09:13;;;;;;;;;;;;;;;23.34;75.07;97284.41;610033;231;66409;-70
2022/05/26 06:11:41;;;;;;;;;;;;;;;23.34;75.27;97285.20;610556;231;63025;-72
2022/05/26 06:14:08;;;;;;;;;;;;;;;23.35;75.98;97294.04;610665;231;68854;-71
2022/05/26 06:16:36;;;;;;;;;;;;;;;23.36;75.38;97287.62;610606;231;68391;-72
2022/05/26 06:19:04;;;;;;;;;;;;;;;23.36;75.80;97292.98;612612;230;63079;-70
2022/05/26 06:21:32;;;;;;;;;;;;;;;23.36;74.60;97282.25;610490;232;66452;-71
2022/05/26 06:24:00;;;;;;;;;;;;;;;23.36;75.48;97288.41;615047;230;68623;-71
2022/05/26 06:26:31;;;;;;;;;;;;;;;23.38;75.67;97288.11;616014;230;63167;-71
2022/05/26 06:37:15;;;;;;;;;;;;;;;23.38;75.19;97293.48;611357;230;66155;-70
2022/05/26 06:39:44;;;;;;;;;;;;;;;23.37;75.23;97298.05;615863;230;68347;-70
2022/05/26 06:42:12;;;;;;;;;;;;;;;23.38;75.13;97296.98;616249;230;65297;-70
2022/05/26 06:44:42;;;;;;;;;;;;;;;23.38;75.18;97291.62;616281;230;66098;-70
2022/05/26 06:47:14;;;;;;;;;;;;;;;23.38;74.18;97298.84;616222;230;68154;-70
2022/05/26 06:49:42;;;;;;;;;;;;;;;23.38;75.65;97302.34;616273;230;62967;-70
2022/05/26 06:52:11;;;;;;;;;;;;;;;23.38;75.48;97307.72;616140;230;68528;-70
2022/05/26 06:54:40;;;;;;;;;;;;;;;23.38;74.97;97313.08;616192;230;66229;-70
2022/05/26 06:57:08;;;;;;;;;;;;;;;23.39;75.81;97311.98;616147;230;65149;-70
2022/05/26 06:59:41;;;;;;;;;;;;;;;23.39;74.83;97320.03;616299;230;65953;-68
2022/05/26 07:02:14;;;;;;;;;;;;;;;23.40;74.79;97313.58;616090;229;49697;-73
2022/05/26 07:04:42;;;;;;;;;;;;;;;23.41;75.28;97325.92;614898;230;65208;-70
2022/05/26 07:07:11;;;;;;;;;;;;;;;23.41;74.76;97319.77;610514;228;67028;-70
2022/05/26 07:09:39;;;;;;;;;;;;;;;23.42;74.01;97319.47;610486;232;66108;-71
2022/05/26 07:12:06;;;;;;;;;;;;;;;23.42;75.42;97326.72;610545;232;65107;-71
2022/05/26 07:14:34;;;;;;;;;;;;;;;23.42;73.98;97326.72;610649;232;68491;-71
2022/05/26 07:17:02;;;;;;;;;;;;;;;23.42;74.12;97329.41;610442;232;68297;-67
2022/05/26 07:19:31;;;;;;;;;;;;;;;23.40;73.25;97328.88;610616;232;65506;-71
2022/05/26 07:21:58;;;;;;;;;;;;;;;23.42;73.11;97330.20;610600;232;68383;-74
2022/05/26 07:24:26;;;;;;;;;;;;;;;23.44;73.10;97332.61;610491;232;68303;-75
2022/05/26 07:26:54;;;;;;;;;;;;;;;23.44;73.95;97335.30;610624;232;65107;-75
2022/05/26 07:29:22;;;;;;;;;;;;;;;23.43;73.86;97339.84;610310;232;68399;-75
2022/05/26 07:31:49;;;;;;;;;;;;;;;23.44;73.58;97332.61;606951;231;68387;-74
2022/05/26 07:34:18;;;;;;;;;;;;;;;23.44;74.67;97337.98;603189;235;65205;-74
2022/05/26 07:42:20;;;;;;;;;;;;;;;23.44;75.08;97337.98;603972;235;65407;-76
2022/05/26 07:44:49;;;;;;;;;;;;;;;23.42;75.06;97340.13;603910;235;68401;-75
2022/05/26 07:47:17;;;;;;;;;;;;;;;23.43;75.71;97341.72;604007;235;68042;-75
2022/05/26 07:49:47;;;;;;;;;;;;;;;23.43;75.52;97342.52;604003;235;65553;-75
2022/05/26 07:52:15;;;;;;;;;;;;;;;23.42;74.37;97348.17;603905;235;65063;-72
2022/05/26 07:54:43;;;;;;;;;;;;;;;23.44;74.89;97340.66;603990;235;68634;-73
2022/05/26 07:57:12;;;;;;;;;;;;;;;23.43;74.42;97349.77;603975;233;65765;-75
2022/05/26 07:59:40;;;;;;;;;;;;;;;23.43;75.20;97341.72;603458;235;66263;-70
2022/05/26 08:02:07;;;;;;;;;;;;;;;23.43;75.21;97350.56;603930;235;66192;-70
2022/05/26 08:04:35;;;;;;;;;;;;;;;23.43;74.99;97347.09;604823;233;62968;-70
2022/05/26 08:07:02;;;;;;;;;;;;;;;23.44;74.51;97351.39;608424;233;66098;-72
2022/05/26 08:09:30;;;;;;;;;;;;;;;23.43;74.85;97347.88;608388;233;68341;-72
2022/05/26 08:11:57;;;;;;;;;;;;;;;23.44;73.94;97341.45;608402;231;63068;-72
2022/05/26 08:14:25;;;;;;;;;;;;;;;23.44;74.88;97356.76;608389;233;66159;-69
2022/05/26 08:16:53;;;;;;;;;;;;;;;23.44;75.49;97352.19;608360;233;68282;-69
2022/05/26 08:19:21;;;;;;;;;;;;;;;23.44;75.21;97354.07;608358;233;65392;-69
2022/05/26 08:21:49;;;;;;;;;;;;;;;23.42;75.18;97358.91;608435;233;68578;-70
2022/05/26 08:24:19;;;;;;;;;;;;;;;23.44;74.90;97359.44;608417;233;66287;-70
2022/05/26 08:26:47;;;;;;;;;;;;;;;23.45;74.88;97351.09;608386;233;65213;-70
2022/05/26 08:29:14;;;;;;;;;;;;;;;23.46;74.50;97357.26;615402;230;68337;-71
2022/05/26 08:31:42;;;;;;;;;;;;;;;23.45;74.28;97350.30;615605;230;65956;-70
2022/05/26 08:34:10;;;;;;;;;;;;;;;23.44;74.60;97352.19;615642;230;63068;-70
2022/05/26 08:36:38;;;;;;;;;;;;;;;23.44;75.33;97356.76;615670;230;68567;-70
2022/05/26 08:39:07;;;;;;;;;;;;;;;23.45;74.52;97355.66;615677;230;66223;-71
2022/05/26 08:41:36;;;;;;;;;;;;;;;23.44;74.40;97365.59;615586;230;62996;-70
2022/05/26 08:44:06;;;;;;;;;;;;;;;23.45;74.86;97371.76;615542;230;68440;-71
2022/05/26 08:46:50;;;;;;;;;;;;;;;23.45;75.02;97366.39;615634;230;66059;-71
2022/05/26 08:49:31;;;;;;;;;;;;;;;23.45;73.87;97375.23;615633;230;65221;-71
2022/05/26 08:52:03;;;;;;;;;;;;;;;23.45;75.04;97367.19;615502;230;68374;-71
2022/05/26 08:54:32;;;;;;;;;;;;;;;23.43;75.33;97369.34;615633;230;65852;-72
2022/05/26 08:57:01;;;;;;;;;;;;;;;23.42;74.82;97365.06;614783;230;65361;-72
2022/05/26 08:59:30;;;;;;;;;;;;;;;23.42;74.62;97375.80;615657;230;68327;-68
2022/05/26 09:01:59;;;;;;;;;;;;;;;23.42;74.70;97370.43;615592;230;67825;-68
2022/05/26 09:04:27;;;;;;;;;;;;;;;23.44;74.58;97372.84;614956;230;63096;-67
2022/05/26 09:15:14;;;;;;;;;;;;;;;23.46;74.93;97376.03;610818;232;68199;-73
2022/05/26 09:17:41;;;;;;;;;;;;;;;23.44;75.06;97376.33;609912;232;68357;-73
2022/05/26 09:20:26;;;;;;;;;;;;;;;23.45;75.11;97374.44;609923;232;65153;-73
2022/05/26 09:22:53;;;;;;;;;;;;;;;23.44;75.18;97367.48;610023;232;68342;-73
2022/05/26 09:25:31;;;;;;;;;;;;;;;23.44;74.84;97365.59;609895;232;67994;-73
2022/05/26 09:27:58;;;;;;;;;;;;;;;23.44;75.12;97370.16;609823;231;65391;-72
2022/05/26 09:30:28;;;;;;;;;;;;;;;23.43;75.38;97372.02;609875;232;67567;-70
2022/05/26 09:32:56;;;;;;;;;;;;;;;23.43;75.50;97368.55;609966;232;68007;-68
2022/05/26 09:35:28;;;;;;;;;;;;;;;23.44;74.90;97370.16;609984;232;63044;-71
2022/05/26 09:38:03;;;;;;;;;;;;;;;23.45;75.45;97382.48;609885;232;66280;-70
2022/05/26 09:40:38;;;;;;;;;;;;;;;23.43;75.42;97373.91;609141;232;67883;-72
2022/05/26 09:43:08;;;;;;;;;;;;;;;23.44;74.87;97375.53;609938;232;65563;-72
2022/05/26 09:45:37;;;;;;;;;;;;;;;23.45;75.17;97371.76;609867;232;66196;-74
2022/05/26 09:48:06;;;;;;;;;;;;;;;23.44;75.32;97373.64;609851;231;66020;-73
2022/05/26 09:50:40;;;;;;;;;;;;;;;23.44;74.83;97381.69;609675;231;63146;-75
2022/05/26 09:53:06;;;;;;;;;;;;;;;23.45;75.01;97366.39;609790;231;66129;-76
2022/05/26 09:55:35;;;;;;;;;;;;;;;23.45;75.18;97374.44;609974;232;66323;-72
2022/05/26 09:58:04;;;;;;;;;;;;;;;23.46;75.19;97378.71;609660;231;65439;-73
2022/05/26 10:00:33;;;;;;;;;;;;;;;23.44;75.08;97373.64;609660;232;68339;-73
2022/05/26 10:03:02;;;;;;;;;;;;;;;23.45;75.64;97375.23;609948;230;66212;-73
2022/05/26 10:05:37;;;;;;;;;;;;;;;23.44;74.89;97370.16;611843;229;62555;-73
2022/05/26 10:08:10;;;;;;;;;;;;;;;23.46;74.18;97376.03;610451;232;68368;-73
2022/05/26 10:10:59;;;;;;;;;;;;;;;23.45;75.22;97371.76;610516;232;68024;-74
2022/05/26 10:13:31;;;;;;;;;;;;;;;23.45;75.51;97375.23;610252;232;68155;-73
2022/05/26 10:16:00;;;;;;;;;;;;;;;23.45;74.69;97377.92;610612;230;68196;-73
2022/05/26 10:18:30;;;;;;;;;;;;;;;23.44;74.56;97370.16;616283;230;66047;-74
2022/05/26 10:21:14;;;;;;;;;;;;;;;23.44;74.89;97375.53;616288;230;63006;-74
2022/05/26 10:23:43;;;;;;;;;;;;;;;23.44;74.84;97375.53;616345;230;68248;-74
2022/05/26 10:26:15;;;;;;;;;;;;;;;23.44;74.90;97380.89;615800;230;68539;-75
2022/05/26 10:28:47;;;;;;;;;;;;;;;23.43;74.80;97369.34;616145;230;65174;-76
2022/05/26 10:31:16;;;;;;;;;;;;;;;23.43;74.98;97377.39;615886;229;66548;-76
2022/05/26 10:34:01;;;;;;;;;;;;;;;23.43;74.97;97373.91;615763;230;68509;-77
2022/05/26 10:36:49;;;;;;;;;;;;;;;23.44;74.86;97370.16;616191;230;65389;-75
2022/05/26 10:39:24;;;;;;;;;;;;;;;23.43;74.91;97371.23;616374;230;68358;-72
2022/05/26 10:41:52;;;;;;;;;;;;;;;23.43;74.90;97376.59;616099;230;67450;-71
2022/05/26 10:44:25;;;;;;;;;;;;;;;23.44;72.00;97375.53;616175;230;65382;-74
2022/05/26 10:47:03;;;;;;;;;;;;;;;23.44;74.18;97367.48;616255;230;68599;-73
2022/05/26 10:49:32;;;;;;;;;;;;;;;23.43;74.28;97363.18;616129;230;74627;-73
2022/05/26 10:52:01;;;;;;;;;;;;;;;23.43;74.46;97371.23;616150;230;63073;-73
2022/05/26 10:54:33;;;;;;;;;;;;;;;23.42;74.84;97377.68;616281;230;66735;-74
2022/05/26 10:57:05;;;;;;;;;;;;;;;23.42;75.08;97356.22;616065;230;66464;-73
2022/05/26 10:59:40;;;;;;;;;;;;;;;23.42;75.01;97350.86;615499;230;65147;-73
2022/05/26 11:02:11;;;;;;;;;;;;;;;23.42;74.63;97353.55;616065;230;68670;-74
2022/05/26 11:04:46;;;;;;;;;;;;;;;23.42;74.39;97372.32;615141;230;66472;-76
2022/05/26 11:07:24;;;;;;;;;;;;;;;23.42;74.54;97375.80;611791;231;65580;-73
2022/05/26 11:09:59;;;;;;;;;;;;;;;23.41;74.30;97370.73;610918;232;68917;-75
2022/05/26 11:12:31;;;;;;;;;;;;;;;23.42;74.52;97377.68;608888;230;66383;-75
2022/05/26 11:17:47;;;;;;;;;;;;;;;23.41;74.44;97384.14;609777;232;69517;-75
2022/05/26 11:20:16;;;;;;;;;;;;;;;23.41;74.07;97382.25;609752;231;69410;-74
2022/05/26 11:22:49;;;;;;;;;;;;;;;23.40;74.15;97372.58;609813;231;65331;-71
2022/05/26 11:25:15;;;;;;;;;;;;;;;23.41;74.39;97381.45;609630;232;68759;-72
2022/05/26 11:27:47;;;;;;;;;;;;;;;23.41;73.79;97365.36;609857;232;66774;-74
2022/05/26 11:36:10;;;;;;;;;;;;;;;23.42;73.51;97361.59;609903;232;68393;-72
2022/05/26 11:38:42;;;;;;;;;;;;;;;23.42;73.69;97361.59;609820;232;63029;-73
2022/05/26 11:41:17;;;;;;;;;;;;;;;23.41;73.54;97366.16;609850;232;68621;-74
2022/05/26 11:44:03;;;;;;;;;;;;;;;23.41;74.53;97370.73;604882;232;68861;-74
2022/05/26 11:46:45;;;;;;;;;;;;;;;23.41;73.90;97349.27;609828;232;65322;-75
2022/05/26 11:49:14;;;;;;;;;;;;;;;23.41;73.64;97360.00;609943;232;68789;-72
2022/05/26 11:51:42;;;;;;;;;;;;;;;23.42;73.74;97356.22;609217;232;66427;-72
2022/05/26 11:54:11;;;;;;;;;;;;;;;23.42;74.80;97362.38;609857;232;65370;-72
2022/05/26 11:56:43;;;;;;;;;;;;;;;23.43;73.28;97376.59;609817;230;69578;-72
2022/05/26 11:59:21;;;;;;;;;;;;;;;23.42;73.59;97370.43;609960;230;68623;-71
2022/05/26 12:08:30;;;;;;;;;;;;;;;23.43;74.21;97372.02;615050;230;44424;-72
2022/05/26 12:10:59;;;;;;;;;;;;;;;23.43;73.94;97373.91;612302;226;65399;-77
2022/05/26 12:13:28;;;;;;;;;;;;;;;23.43;74.02;97385.44;611811;231;69730;-75
2022/05/26 12:16:13;;;;;;;;;;;;;;;23.44;73.12;97378.21;611839;232;66636;-73
2022/05/26 12:18:51;;;;;;;;;;;;;;;23.43;74.26;97379.27;611884;232;65318;-72
2022/05/26 12:21:30;;;;;;;;;;;;;;;23.44;74.46;97383.58;610703;232;68438;-72
2022/05/26 12:23:59;;;;;;;;;;;;;;;23.43;74.68;97380.06;609934;232;68599;-73
2022/05/26 12:26:28;;;;;;;;;;;;;;;23.42;74.22;97383.84;609937;232;63456;-73
2022/05/26 12:28:57;;;;;;;;;;;;;;;23.44;75.08;97380.89;609957;232;68662;-75
2022/05/26 12:31:25;;;;;;;;;;;;;;;23.44;74.04;97370.16;609112;232;66465;-72
2022/05/26 12:34:02;;;;;;;;;;;;;;;23.45;72.57;97374.44;609907;232;62988;-72
2022/05/26 12:36:30;;;;;;;;;;;;;;;23.47;71.60;97380.34;609410;231;68596;-73
2022/05/26 12:38:59;;;;;;;;;;;;;;;23.47;74.24;97364.24;608925;232;68521;-73
2022/05/26 12:41:29;;;;;;;;;;;;;;;23.46;73.87;97376.03;609667;231;66616;-73
2022/05/26 12:44:01;;;;;;;;;;;;;;;23.46;74.52;97384.08;609676;231;68555;-73
2022/05/26 12:46:33;;;;;;;;;;;;;;;23.45;73.99;97379.80;609069;232;68600;-73
2022/05/26 12:49:08;;;;;;;;;;;;;;;23.45;73.76;97366.39;609923;232;65106;-73
2022/05/26 12:51:39;;;;;;;;;;;;;;;23.46;73.49;97365.30;609473;232;68773;-73
2022/05/26 12:54:08;;;;;;;;;;;;;;;23.46;74.66;97354.57;609851;232;68429;-73
2022/05/26 12:56:37;;;;;;;;;;;;;;;23.46;74.76;97351.89;609975;232;65324;-75
2022/05/26 12:59:05;;;;;;;;;;;;;;;23.45;74.50;97355.66;609734;231;68626;-73
2022/05/26 13:01:34;;;;;;;;;;;;;;;23.46;74.26;97362.62;609910;232;68814;-73
2022/05/26 13:04:08;;;;;;;;;;;;;;;23.46;74.40;97367.98;609839;232;63487;-73
2022/05/26 13:06:46;;;;;;;;;;;;;;;23.46;74.64;97368.81;609852;231;68679;-73
2022/05/26 13:09:15;;;;;;;;;;;;;;;23.46;74.78;97359.94;610593;230;66404;-73
2022/05/26 13:11:44;;;;;;;;;;;;;;;23.46;74.42;97357.26;614980;230;65356;-74
2022/05/26 13:14:32;;;;;;;;;;;;;;;23.45;74.70;97359.14;615020;230;66467;-73
2022/05/26 13:17:01;;;;;;;;;;;;;;;23.45;75.13;97351.09;615619;230;68473;-73
2022/05/26 13:19:28;;;;;;;;;;;;;;;23.45;74.84;97351.09;616244;229;65305;-75
2022/05/26 13:21:57;;;;;;;;;;;;;;;23.45;75.02;97345.73;616220;230;68331;-72
2022/05/26 13:24:30;;;;;;;;;;;;;;;23.45;74.73;97343.05;616214;230;66521;-71
2022/05/26 13:26:59;;;;;;;;;;;;;;;23.44;75.28;97336.09;616209;230;63310;-70
2022/05/26 13:29:27;;;;;;;;;;;;;;;23.45;74.70;97344.94;616269;229;66675;-72
2022/05/26 13:34:48;;;;;;;;;;;;;;;23.45;73.57;97337.69;616236;230;62929;-70
2022/05/26 13:37:17;;;;;;;;;;;;;;;23.46;75.20;97330.44;616310;230;67316;-71
2022/05/26 13:39:45;;;;;;;;;;;;;;;23.46;74.71;97322.39;616090;230;66446;-71
2022/05/26 13:42:14;;;;;;;;;;;;;;;23.45;75.13;97323.48;616309;230;62718;-71
2022/05/26 13:44:43;;;;;;;;;;;;;;;23.45;75.31;97329.64;615641;230;66143;-71
2022/05/26 13:47:12;;;;;;;;;;;;;;;23.51;72.46;97322.35;616194;230;68365;-73
2022/05/26 13:49:43;;;;;;;;;;;;;;;23.51;72.88;97327.72;616300;230;63121;-73
2022/05/26 13:52:11;;;;;;;;;;;;;;;23.49;74.16;97322.65;616234;230;68087;-72